createdAt,value
2024-02-23T00:00:19.021Z,36.40
2024-02-23T00:01:21.588Z,35.81
2024-02-23T00:02:24.259Z,35.91
2024-02-23T00:03:27.269Z,35.94
2024-02-23T00:04:29.877Z,35.52
2024-02-23T00:05:33.112Z,35.63
2024-02-23T00:06:35.821Z,35.73
2024-02-23T00:07:38.376Z,37.09
2024-02-23T00:08:42.641Z,36.70
2024-02-23T00:09:45.210Z,36.11
2024-02-23T00:10:47.954Z,35.63
2024-02-23T00:11:50.924Z,37.31
2024-02-23T00:12:53.617Z,36.85
2024-02-23T00:13:56.214Z,35.82
2024-02-23T00:14:59.033Z,36.70
2024-02-23T00:16:01.684Z,35.83
2024-02-23T00:17:04.447Z,36.00
2024-02-23T00:18:07.934Z,36.56
2024-02-23T00:19:11.073Z,35.75
2024-02-23T00:20:13.838Z,36.05
2024-02-23T00:21:16.440Z,36.62
2024-02-23T00:22:18.968Z,36.31
2024-02-23T00:23:21.657Z,36.09
2024-02-23T00:24:24.353Z,36.67
2024-02-23T00:25:26.899Z,36.18
2024-02-23T00:26:30.740Z,36.82
2024-02-23T00:27:33.352Z,36.59
2024-02-23T00:28:36.131Z,37.39
2024-02-23T00:29:38.714Z,36.20
2024-02-23T00:30:41.242Z,36.42
2024-02-23T00:31:46.509Z,36.04
2024-02-23T00:32:49.258Z,36.95
2024-02-23T00:33:51.834Z,37.40
2024-02-23T00:34:54.440Z,37.79
2024-02-23T00:35:57.050Z,36.96
2024-02-23T00:36:59.633Z,37.27
2024-02-23T00:38:02.223Z,36.80
2024-02-23T00:39:04.772Z,37.02
2024-02-23T00:40:08.291Z,37.05
2024-02-23T00:41:10.951Z,36.19
2024-02-23T00:42:13.506Z,36.77
2024-02-23T00:43:16.123Z,36.63
2024-02-23T00:44:18.819Z,37.49
2024-02-23T00:45:21.451Z,36.85
2024-02-23T00:46:24.014Z,36.40
2024-02-23T00:47:28.502Z,36.66
2024-02-23T00:48:31.392Z,36.42
2024-02-23T00:49:34.006Z,36.83
2024-02-23T00:50:36.667Z,36.58
2024-02-23T00:51:39.230Z,36.92
2024-02-23T00:52:42.345Z,36.90
2024-02-23T00:53:44.912Z,36.51
2024-02-23T00:54:47.456Z,37.09
2024-02-23T00:55:50.149Z,36.53
2024-02-23T00:56:57.261Z,37.08
2024-02-23T00:58:00.452Z,37.34
2024-02-23T00:59:03.171Z,37.11
2024-02-23T01:00:07.179Z,37.46
2024-02-23T01:01:09.774Z,36.98
2024-02-23T01:02:12.374Z,36.92
2024-02-23T01:03:15.059Z,37.40
2024-02-23T01:04:17.584Z,37.41
2024-02-23T01:05:20.315Z,36.82
2024-02-23T01:06:23.028Z,36.98
2024-02-23T01:07:27.352Z,36.29
2024-02-23T01:08:31.205Z,37.91
2024-02-23T01:09:33.776Z,37.62
2024-02-23T01:10:36.446Z,37.38
2024-02-23T01:11:39.234Z,37.02
2024-02-23T01:12:41.899Z,36.89
2024-02-23T01:13:44.467Z,37.28
2024-02-23T01:14:49.470Z,37.64
2024-02-23T01:15:55.119Z,37.30
2024-02-23T01:16:57.563Z,36.83
2024-02-23T01:18:00.059Z,36.70
2024-02-23T01:19:04.214Z,36.40
2024-02-23T01:20:07.709Z,36.34
2024-02-23T01:21:10.212Z,36.28
2024-02-23T01:22:12.945Z,36.09
2024-02-23T01:23:15.633Z,37.43
2024-02-23T01:24:18.351Z,36.99
2024-02-23T01:25:21.033Z,37.14
2024-02-23T01:26:23.660Z,37.17
2024-02-23T01:27:26.291Z,37.20
2024-02-23T01:28:28.844Z,36.46
2024-02-23T01:29:31.449Z,36.50
2024-02-23T01:30:34.081Z,36.63
2024-02-23T01:31:36.679Z,38.02
2024-02-23T01:32:40.344Z,36.98
2024-02-23T01:33:43.277Z,36.75
2024-02-23T01:34:45.938Z,37.30
2024-02-23T01:35:48.725Z,36.62
2024-02-23T01:36:51.325Z,36.37
2024-02-23T01:37:54.935Z,36.27
2024-02-23T01:38:57.534Z,36.95
2024-02-23T01:40:01.552Z,36.82
2024-02-23T01:41:05.896Z,37.03
2024-02-23T01:42:09.809Z,36.68
2024-02-23T01:43:12.416Z,36.55
2024-02-23T01:44:16.632Z,37.43
2024-02-23T01:45:19.386Z,36.45
2024-02-23T01:46:22.818Z,36.79
2024-02-23T01:47:26.540Z,36.67
2024-02-23T01:48:29.439Z,36.95
2024-02-23T01:49:35.010Z,37.52
2024-02-23T01:50:38.625Z,38.43
2024-02-23T01:51:41.488Z,37.80
2024-02-23T01:52:44.434Z,38.29
2024-02-23T01:53:47.165Z,37.51
2024-02-23T01:54:49.941Z,37.66
2024-02-23T01:55:54.720Z,37.67
2024-02-23T01:57:03.418Z,38.63
2024-02-23T01:58:09.216Z,38.00
2024-02-23T01:59:13.288Z,37.30
2024-02-23T02:00:19.516Z,36.95
2024-02-23T02:01:28.691Z,37.66
2024-02-23T02:02:32.017Z,37.17
2024-02-23T02:03:34.837Z,36.76
2024-02-23T02:04:37.432Z,36.89
2024-02-23T02:05:40.319Z,37.05
2024-02-23T02:06:43.399Z,37.51
2024-02-23T02:07:48.382Z,38.13
2024-02-23T02:08:51.181Z,37.50
2024-02-23T02:09:53.838Z,37.55
2024-02-23T02:10:56.537Z,37.40
2024-02-23T02:11:59.203Z,38.40
2024-02-23T02:13:06.611Z,38.43
2024-02-23T02:14:09.273Z,37.71
2024-02-23T02:15:11.879Z,37.44
2024-02-23T02:16:14.480Z,38.59
2024-02-23T02:17:17.125Z,39.07
2024-02-23T02:18:20.212Z,40.04
2024-02-23T02:19:22.867Z,39.16
2024-02-23T02:20:30.037Z,39.18
2024-02-23T02:21:34.233Z,39.06
2024-02-23T02:22:36.890Z,38.21
2024-02-23T02:23:39.741Z,39.33
2024-02-23T02:24:44.821Z,39.10
2024-02-23T02:26:02.353Z,40.06
2024-02-23T02:27:07.767Z,38.69
2024-02-23T02:28:10.312Z,38.61
2024-02-23T02:29:12.951Z,39.19
2024-02-23T02:30:15.969Z,39.11
2024-02-23T02:31:18.549Z,38.58
2024-02-23T02:32:21.306Z,38.83
2024-02-23T02:33:24.234Z,38.56
2024-02-23T02:34:26.918Z,39.24
2024-02-23T02:35:29.743Z,38.75
2024-02-23T02:36:32.308Z,38.35
2024-02-23T02:37:35.623Z,38.55
2024-02-23T02:38:38.855Z,38.89
2024-02-23T02:39:41.426Z,38.72
2024-02-23T02:40:44.313Z,39.07
2024-02-23T02:41:48.864Z,38.99
2024-02-23T02:42:51.483Z,39.31
2024-02-23T02:43:54.050Z,39.27
2024-02-23T02:44:56.725Z,38.62
2024-02-23T02:46:00.269Z,38.31
2024-02-23T02:47:02.909Z,40.05
2024-02-23T02:48:06.026Z,39.91
2024-02-23T02:49:08.849Z,39.36
2024-02-23T02:50:11.484Z,38.87
2024-02-23T02:51:14.043Z,38.70
2024-02-23T02:52:16.581Z,38.87
2024-02-23T02:53:20.339Z,38.61
2024-02-23T02:54:23.014Z,38.45
2024-02-23T02:55:25.514Z,38.45
2024-02-23T02:56:28.173Z,38.35
2024-02-23T02:57:31.124Z,38.72
2024-02-23T02:58:33.678Z,38.26
2024-02-23T02:59:37.542Z,37.95
2024-02-23T03:00:40.779Z,38.41
2024-02-23T03:01:43.578Z,39.39
2024-02-23T03:02:46.118Z,38.57
2024-02-23T03:03:48.913Z,38.84
2024-02-23T03:04:52.463Z,38.45
2024-02-23T03:05:55.105Z,38.92
2024-02-23T03:06:57.705Z,38.43
2024-02-23T03:08:00.326Z,39.17
2024-02-23T03:09:03.958Z,38.59
2024-02-23T03:10:07.441Z,39.17
2024-02-23T03:11:10.160Z,38.92
2024-02-23T03:12:12.820Z,38.95
2024-02-23T03:13:15.439Z,38.88
2024-02-23T03:14:19.591Z,39.43
2024-02-23T03:15:22.258Z,38.79
2024-02-23T03:16:27.078Z,38.79
2024-02-23T03:17:30.503Z,39.67
2024-02-23T03:18:33.132Z,39.45
2024-02-23T03:19:35.934Z,39.11
2024-02-23T03:20:38.608Z,39.58
2024-02-23T03:21:41.165Z,39.24
2024-02-23T03:22:43.772Z,39.39
2024-02-23T03:23:46.378Z,39.39
2024-02-23T03:24:48.944Z,39.99
2024-02-23T03:25:51.521Z,39.23
2024-02-23T03:26:54.405Z,38.87
2024-02-23T03:27:56.999Z,38.98
2024-02-23T03:28:59.589Z,39.34
2024-02-23T03:30:02.213Z,39.25
2024-02-23T03:31:04.808Z,39.79
2024-02-23T03:32:08.494Z,39.01
2024-02-23T03:33:11.311Z,39.73
2024-02-23T03:34:14.377Z,39.47
2024-02-23T03:35:17.029Z,39.62
2024-02-23T03:36:19.640Z,39.47
2024-02-23T03:37:22.213Z,39.48
2024-02-23T03:38:24.786Z,39.82
2024-02-23T03:39:27.493Z,40.40
2024-02-23T03:40:30.140Z,40.53
2024-02-23T03:41:32.784Z,40.26
2024-02-23T03:42:35.940Z,39.83
2024-02-23T03:43:39.518Z,39.83
2024-02-23T03:44:43.902Z,39.02
2024-02-23T03:45:46.492Z,39.58
2024-02-23T03:46:49.035Z,39.26
2024-02-23T03:47:51.730Z,39.36
2024-02-23T03:48:54.367Z,39.07
2024-02-23T03:49:57.039Z,39.56
2024-02-23T03:50:59.708Z,39.43
2024-02-23T03:52:02.842Z,39.26
2024-02-23T03:53:05.580Z,39.34
2024-02-23T03:54:08.303Z,39.44
2024-02-23T03:55:11.045Z,40.09
2024-02-23T03:56:14.112Z,39.28
2024-02-23T03:57:16.653Z,39.04
2024-02-23T03:58:19.215Z,39.05
2024-02-23T03:59:21.890Z,39.01
2024-02-23T04:00:24.484Z,38.49
2024-02-23T04:01:26.994Z,38.72
2024-02-23T04:02:30.359Z,38.90
2024-02-23T04:03:33.000Z,38.71
2024-02-23T04:04:35.789Z,38.75
2024-02-23T04:05:38.527Z,38.44
2024-02-23T04:06:41.191Z,38.52
2024-02-23T04:07:43.949Z,38.60
2024-02-23T04:08:47.652Z,39.22
2024-02-23T04:09:53.756Z,39.04
2024-02-23T04:10:56.872Z,38.76
2024-02-23T04:11:59.785Z,38.78
2024-02-23T04:13:02.876Z,39.97
2024-02-23T04:14:06.494Z,39.23
2024-02-23T04:15:09.767Z,38.93
2024-02-23T04:16:12.314Z,38.88
2024-02-23T04:17:15.209Z,38.80
2024-02-23T04:18:17.784Z,38.65
2024-02-23T04:19:20.337Z,39.04
2024-02-23T04:20:23.046Z,38.92
2024-02-23T04:21:25.587Z,39.29
2024-02-23T04:22:28.118Z,39.81
2024-02-23T04:23:31.699Z,39.44
2024-02-23T04:24:34.297Z,39.06
2024-02-23T04:25:36.925Z,38.98
2024-02-23T04:26:39.568Z,40.00
2024-02-23T04:27:42.331Z,41.06
2024-02-23T04:28:44.853Z,40.34
2024-02-23T04:29:47.474Z,41.12
2024-02-23T04:30:50.469Z,40.14
2024-02-23T04:31:53.079Z,39.40
2024-02-23T04:32:55.710Z,39.74
2024-02-23T04:33:58.307Z,40.33
2024-02-23T04:35:00.891Z,41.04
2024-02-23T04:36:04.906Z,39.97
2024-02-23T04:37:07.541Z,40.62
2024-02-23T04:38:10.152Z,39.55
2024-02-23T04:39:12.704Z,39.57
2024-02-23T04:40:15.489Z,39.60
2024-02-23T04:41:24.713Z,39.48
2024-02-23T04:42:27.920Z,39.41
2024-02-23T04:43:30.492Z,39.58
2024-02-23T04:44:33.183Z,39.33
2024-02-23T04:45:35.870Z,40.30
2024-02-23T04:46:38.471Z,40.01
2024-02-23T04:47:41.833Z,39.68
2024-02-23T04:48:44.918Z,39.52
2024-02-23T04:49:47.520Z,39.87
2024-02-23T04:50:50.072Z,39.71
2024-02-23T04:51:52.616Z,39.29
2024-02-23T04:52:55.237Z,39.16
2024-02-23T04:53:57.915Z,40.06
2024-02-23T04:55:00.583Z,39.65
2024-02-23T04:56:03.414Z,39.97
2024-02-23T04:57:06.093Z,39.59
2024-02-23T04:58:08.690Z,39.14
2024-02-23T04:59:11.396Z,38.91
2024-02-23T05:00:14.374Z,39.06
2024-02-23T05:01:16.921Z,39.01
2024-02-23T05:02:19.887Z,39.68
2024-02-23T05:03:22.711Z,39.21
2024-02-23T05:04:25.338Z,38.94
2024-02-23T05:05:27.942Z,38.96
2024-02-23T05:06:31.234Z,38.85
2024-02-23T05:07:34.394Z,38.74
2024-02-23T05:08:37.054Z,38.62
2024-02-23T05:09:41.709Z,38.72
2024-02-23T05:10:44.330Z,38.68
2024-02-23T05:11:48.516Z,38.99
2024-02-23T05:12:51.705Z,39.43
2024-02-23T05:13:54.778Z,39.44
2024-02-23T05:14:57.430Z,39.94
2024-02-23T05:16:00.124Z,39.64
2024-02-23T05:17:02.748Z,39.62
2024-02-23T05:18:06.449Z,39.77
2024-02-23T05:19:09.115Z,39.69
2024-02-23T05:20:12.680Z,40.39
2024-02-23T05:21:18.466Z,41.27
2024-02-23T05:22:21.059Z,41.44
2024-02-23T05:23:23.666Z,41.07
2024-02-23T05:24:26.882Z,42.00
2024-02-23T05:25:29.482Z,43.72
2024-02-23T05:26:32.079Z,42.65
2024-02-23T05:27:34.670Z,42.93
2024-02-23T05:28:37.200Z,42.93
2024-02-23T05:29:39.819Z,43.64
2024-02-23T05:30:42.452Z,43.98
2024-02-23T05:31:51.424Z,44.04
2024-02-23T05:32:54.396Z,44.64
2024-02-23T05:33:57.031Z,44.54
2024-02-23T05:34:59.715Z,43.73
2024-02-23T05:36:02.865Z,43.75
2024-02-23T05:37:05.477Z,43.43
2024-02-23T05:38:08.108Z,43.75
2024-02-23T05:39:10.898Z,43.23
2024-02-23T05:40:13.644Z,43.70
2024-02-23T05:41:17.050Z,43.90
2024-02-23T05:42:19.730Z,47.07
2024-02-23T05:43:22.325Z,45.88
2024-02-23T05:44:24.971Z,46.40
2024-02-23T05:45:27.519Z,45.75
2024-02-23T05:46:30.028Z,45.34
2024-02-23T05:47:32.922Z,45.90
2024-02-23T05:48:35.738Z,45.49
2024-02-23T05:49:38.362Z,45.03
2024-02-23T05:50:41.019Z,45.55
2024-02-23T05:51:43.638Z,46.31
2024-02-23T05:52:46.240Z,45.75
2024-02-23T05:53:48.815Z,45.86
2024-02-23T05:54:52.987Z,45.38
2024-02-23T05:55:55.582Z,46.38
2024-02-23T05:56:58.105Z,46.36
2024-02-23T05:58:00.773Z,45.42
2024-02-23T05:59:03.590Z,45.25
2024-02-23T06:00:08.578Z,46.06
2024-02-23T06:01:17.015Z,45.30
2024-02-23T06:02:19.784Z,45.32
2024-02-23T06:03:22.321Z,45.25
2024-02-23T06:04:25.849Z,46.23
2024-02-23T06:05:29.455Z,45.27
2024-02-23T06:06:32.766Z,45.53
2024-02-23T06:07:36.134Z,44.76
2024-02-23T06:08:39.098Z,45.56
2024-02-23T06:09:41.733Z,45.86
2024-02-23T06:10:44.559Z,46.18
2024-02-23T06:11:47.999Z,45.34
2024-02-23T06:12:52.670Z,45.23
2024-02-23T06:13:56.918Z,46.13
2024-02-23T06:14:59.930Z,46.26
2024-02-23T06:16:02.470Z,46.16
2024-02-23T06:17:05.278Z,45.47
2024-02-23T06:18:08.033Z,45.22
2024-02-23T06:19:10.705Z,45.86
2024-02-23T06:20:13.754Z,45.20
2024-02-23T06:21:18.668Z,44.87
2024-02-23T06:22:23.347Z,45.80
2024-02-23T06:23:26.050Z,45.12
2024-02-23T06:24:28.708Z,45.77
2024-02-23T06:25:32.504Z,45.61
2024-02-23T06:26:35.839Z,45.25
2024-02-23T06:27:38.574Z,44.74
2024-02-23T06:28:44.408Z,43.40
2024-02-23T06:29:48.259Z,43.58
2024-02-23T06:30:50.906Z,43.95
2024-02-23T06:31:53.496Z,45.46
2024-02-23T06:32:56.163Z,44.90
2024-02-23T06:33:58.929Z,45.61
2024-02-23T06:35:01.881Z,46.08
2024-02-23T06:36:06.236Z,45.47
2024-02-23T06:37:08.869Z,44.64
2024-02-23T06:38:11.505Z,43.84
2024-02-23T06:39:14.228Z,43.90
2024-02-23T06:40:16.955Z,43.71
2024-02-23T06:41:19.761Z,44.58
2024-02-23T06:42:22.621Z,44.45
2024-02-23T06:43:25.263Z,44.69
2024-02-23T06:44:27.854Z,44.11
2024-02-23T06:45:30.398Z,44.48
2024-02-23T06:46:33.000Z,44.62
2024-02-23T06:47:35.736Z,44.50
2024-02-23T06:48:38.883Z,44.69
2024-02-23T06:49:44.971Z,45.06
2024-02-23T06:50:47.930Z,42.97
2024-02-23T06:51:50.594Z,44.60
2024-02-23T06:52:53.150Z,42.81
2024-02-23T06:53:57.774Z,42.89
2024-02-23T06:55:00.657Z,43.15
2024-02-23T06:56:03.495Z,43.80
2024-02-23T06:57:06.071Z,43.51
2024-02-23T06:58:08.795Z,42.39
2024-02-23T06:59:11.357Z,42.48
2024-02-23T07:00:14.949Z,42.61
2024-02-23T07:01:17.589Z,41.64
2024-02-23T07:02:20.580Z,42.07
2024-02-23T07:03:23.381Z,42.03
2024-02-23T07:04:26.724Z,42.07
2024-02-23T07:05:29.417Z,41.77
2024-02-23T07:06:33.227Z,41.29
2024-02-23T07:07:36.411Z,42.92
2024-02-23T07:08:39.121Z,42.25
2024-02-23T07:09:41.765Z,43.76
2024-02-23T07:10:44.507Z,41.13
2024-02-23T07:11:47.229Z,42.49
2024-02-23T07:12:49.904Z,42.15
2024-02-23T07:13:53.414Z,41.90
2024-02-23T07:14:59.236Z,41.16
2024-02-23T07:16:02.290Z,40.78
2024-02-23T07:17:05.150Z,40.82
2024-02-23T07:18:09.864Z,40.23
2024-02-23T07:19:13.999Z,40.17
2024-02-23T07:20:17.254Z,40.30
2024-02-23T07:21:20.151Z,40.90
2024-02-23T07:22:22.862Z,40.36
2024-02-23T07:23:25.476Z,40.66
2024-02-23T07:24:28.179Z,41.07
2024-02-23T07:25:30.706Z,41.27
2024-02-23T07:26:33.418Z,41.80
2024-02-23T07:27:36.422Z,40.92
2024-02-23T07:28:38.978Z,41.04
2024-02-23T07:29:41.697Z,40.39
2024-02-23T07:30:44.432Z,40.90
2024-02-23T07:31:46.985Z,40.75
2024-02-23T07:32:52.434Z,41.13
2024-02-23T07:33:56.401Z,40.76
2024-02-23T07:34:59.126Z,40.26
2024-02-23T07:36:01.682Z,39.91
2024-02-23T07:37:05.010Z,39.33
2024-02-23T07:38:07.583Z,39.63
2024-02-23T07:39:10.354Z,40.10
2024-02-23T07:40:13.973Z,39.28
2024-02-23T07:41:19.005Z,39.94
2024-02-23T07:42:21.818Z,39.51
2024-02-23T07:43:25.679Z,39.56
2024-02-23T07:44:28.402Z,40.46
2024-02-23T07:45:31.126Z,39.70
2024-02-23T07:46:33.830Z,39.93
2024-02-23T07:47:36.916Z,39.72
2024-02-23T07:48:39.657Z,39.30
2024-02-23T07:49:42.335Z,39.50
2024-02-23T07:50:45.062Z,39.05
2024-02-23T07:51:47.621Z,39.58
2024-02-23T07:52:50.347Z,39.43
2024-02-23T07:53:52.930Z,39.37
2024-02-23T07:54:55.809Z,39.32
2024-02-23T07:56:00.642Z,39.14
2024-02-23T07:57:05.679Z,39.41
2024-02-23T07:58:08.245Z,39.45
2024-02-23T07:59:11.333Z,39.22
2024-02-23T08:00:14.192Z,39.05
2024-02-23T08:01:16.979Z,38.82
2024-02-23T08:02:19.625Z,38.46
2024-02-23T08:03:22.304Z,38.89
2024-02-23T08:04:24.994Z,37.62
2024-02-23T08:05:27.645Z,38.56
2024-02-23T08:06:30.777Z,38.39
2024-02-23T08:07:33.510Z,38.59
2024-02-23T08:08:37.262Z,39.13
2024-02-23T08:10:14.141Z,38.89
2024-02-23T08:11:16.911Z,39.12
2024-02-23T08:12:19.582Z,38.62
2024-02-23T08:13:22.275Z,38.34
2024-02-23T08:14:24.816Z,38.43
2024-02-23T08:15:27.401Z,37.56
2024-02-23T08:16:30.267Z,37.71
2024-02-23T08:17:33.136Z,38.38
2024-02-23T08:18:35.925Z,38.12
2024-02-23T08:19:38.590Z,37.90
2024-02-23T08:20:42.383Z,38.26
2024-02-23T08:21:45.187Z,37.87
2024-02-23T08:22:48.586Z,37.66
2024-02-23T08:23:58.088Z,37.91
2024-02-23T08:25:27.174Z,37.53
2024-02-23T08:26:56.104Z,37.62
2024-02-23T08:28:18.155Z,37.88
2024-02-23T08:29:47.131Z,37.59
2024-02-23T08:31:02.872Z,37.53
2024-02-23T08:32:19.892Z,37.32
2024-02-23T08:33:35.248Z,37.88
2024-02-23T08:34:51.266Z,36.66
2024-02-23T08:36:07.217Z,37.14
2024-02-23T08:37:23.159Z,36.44
2024-02-23T08:38:47.178Z,36.69
2024-02-23T08:39:55.794Z,35.84
2024-02-23T08:41:18.211Z,36.50
2024-02-23T08:42:28.108Z,37.67
2024-02-23T08:43:51.231Z,36.99
2024-02-23T08:44:55.694Z,36.23
2024-02-23T08:46:02.164Z,36.22
2024-02-23T08:47:08.138Z,35.44
2024-02-23T08:48:11.058Z,35.53
2024-02-23T08:49:13.812Z,35.98
2024-02-23T08:50:16.777Z,36.78
2024-02-23T08:51:19.532Z,37.08
2024-02-23T08:52:22.241Z,36.53
2024-02-23T08:53:24.902Z,36.32
2024-02-23T08:54:27.705Z,35.48
2024-02-23T08:55:30.306Z,35.56
2024-02-23T08:56:33.596Z,36.28
2024-02-23T08:57:36.549Z,35.41
2024-02-23T08:58:39.706Z,34.98
2024-02-23T08:59:42.243Z,34.78
2024-02-23T09:00:44.912Z,35.11
2024-02-23T09:01:48.004Z,34.98
2024-02-23T09:02:51.256Z,33.79
2024-02-23T09:03:55.814Z,34.66
2024-02-23T09:04:58.863Z,35.78
2024-02-23T09:06:01.862Z,35.65
2024-02-23T09:07:05.036Z,34.92
2024-02-23T09:08:08.053Z,34.44
2024-02-23T09:09:10.798Z,34.26
2024-02-23T09:10:13.716Z,34.35
2024-02-23T09:11:16.620Z,35.02
2024-02-23T09:12:20.044Z,34.63
2024-02-23T09:13:22.749Z,34.51
2024-02-23T09:14:26.675Z,35.69
2024-02-23T09:15:29.398Z,35.89
2024-02-23T09:16:31.954Z,33.99
2024-02-23T09:17:34.827Z,34.43
2024-02-23T09:18:37.786Z,35.53
2024-02-23T09:19:40.622Z,35.51
2024-02-23T09:20:43.336Z,34.28
2024-02-23T09:21:46.730Z,34.84
2024-02-23T09:22:50.198Z,34.07
2024-02-23T09:23:52.871Z,36.38
2024-02-23T09:24:57.448Z,35.66
2024-02-23T09:26:01.207Z,35.04
2024-02-23T09:27:04.448Z,35.60
2024-02-23T09:28:07.345Z,34.57
2024-02-23T09:29:10.081Z,32.96
2024-02-23T09:30:15.289Z,33.33
2024-02-23T09:31:18.100Z,34.10
2024-02-23T09:32:20.805Z,34.16
2024-02-23T09:33:23.565Z,34.11
2024-02-23T09:34:26.591Z,34.08
2024-02-23T09:35:29.349Z,33.25
2024-02-23T09:36:32.017Z,32.88
2024-02-23T09:37:34.734Z,33.58
2024-02-23T09:38:37.371Z,33.32
2024-02-23T09:39:39.950Z,33.15
2024-02-23T09:40:42.507Z,33.73
2024-02-23T09:41:45.222Z,31.89
2024-02-23T09:42:58.379Z,31.16
2024-02-23T09:44:04.028Z,33.32
2024-02-23T09:45:10.114Z,32.70
2024-02-23T09:46:13.712Z,31.93
2024-02-23T09:47:16.516Z,31.64
2024-02-23T09:48:21.945Z,32.41
2024-02-23T09:49:24.668Z,32.35
2024-02-23T09:50:30.572Z,31.09
2024-02-23T09:51:35.311Z,31.76
2024-02-23T09:52:38.074Z,31.19
2024-02-23T09:53:40.885Z,31.61
2024-02-23T09:54:44.507Z,30.69
2024-02-23T09:55:49.399Z,31.65
2024-02-23T09:56:53.345Z,31.35
2024-02-23T09:58:01.109Z,30.83
2024-02-23T09:59:05.656Z,30.64
2024-02-23T10:00:10.458Z,30.10
2024-02-23T10:01:28.846Z,31.21
2024-02-23T10:02:32.852Z,31.05
2024-02-23T10:03:38.333Z,30.83
2024-02-23T10:04:44.545Z,31.08
2024-02-23T10:05:47.430Z,31.11
2024-02-23T10:06:50.124Z,30.48
2024-02-23T10:07:55.869Z,30.46
2024-02-23T10:08:58.639Z,32.02
2024-02-23T10:10:02.576Z,32.66
2024-02-23T10:11:06.575Z,32.56
2024-02-23T10:12:09.693Z,32.38
2024-02-23T10:13:12.560Z,30.74
2024-02-23T10:14:15.129Z,31.31
2024-02-23T10:15:17.776Z,30.35
2024-02-23T10:16:23.853Z,29.89
2024-02-23T10:17:27.132Z,30.20
2024-02-23T10:18:29.745Z,29.58
2024-02-23T10:19:32.768Z,29.64
2024-02-23T10:20:36.456Z,31.00
2024-02-23T10:21:39.337Z,29.90
2024-02-23T10:22:41.873Z,29.56
2024-02-23T10:23:48.530Z,29.69
2024-02-23T10:24:51.300Z,30.61
2024-02-23T10:25:53.924Z,30.37
2024-02-23T10:26:56.542Z,31.72
2024-02-23T10:28:01.064Z,31.26
2024-02-23T10:29:04.397Z,30.48
2024-02-23T10:30:08.019Z,30.32
2024-02-23T10:31:13.674Z,30.83
2024-02-23T10:32:17.087Z,30.61
2024-02-23T10:33:27.177Z,31.18
2024-02-23T10:34:32.475Z,32.89
2024-02-23T10:35:41.802Z,31.61
2024-02-23T10:36:46.540Z,31.86
2024-02-23T10:37:54.623Z,30.75
2024-02-23T10:39:04.262Z,31.11
2024-02-23T10:40:10.452Z,30.72
2024-02-23T10:41:15.342Z,30.89
2024-02-23T10:42:25.482Z,31.22
2024-02-23T10:43:56.974Z,31.14
2024-02-23T10:45:02.504Z,32.35
2024-02-23T10:46:09.083Z,31.29
2024-02-23T10:47:13.491Z,32.55
2024-02-23T10:48:17.418Z,32.09
2024-02-23T10:49:24.378Z,32.65
2024-02-23T10:50:27.788Z,31.54
2024-02-23T10:51:32.366Z,31.96
2024-02-23T10:52:36.266Z,31.31
2024-02-23T10:53:41.721Z,32.10
2024-02-23T10:54:47.688Z,32.41
2024-02-23T10:55:59.198Z,31.56
2024-02-23T10:57:03.432Z,31.42
2024-02-23T10:58:12.968Z,32.11
2024-02-23T10:59:19.403Z,31.18
2024-02-23T11:00:25.508Z,32.15
2024-02-23T11:01:29.441Z,30.90
2024-02-23T11:02:37.083Z,30.67
2024-02-23T11:03:44.301Z,31.43
2024-02-23T11:04:52.255Z,30.97
2024-02-23T11:05:55.807Z,30.19
2024-02-23T11:07:00.369Z,31.61
2024-02-23T11:08:08.446Z,30.99
2024-02-23T11:09:14.493Z,30.80
2024-02-23T11:10:18.007Z,30.12
2024-02-23T11:11:20.754Z,29.69
2024-02-23T11:12:25.818Z,29.53
2024-02-23T11:13:39.816Z,29.05
2024-02-23T11:14:45.792Z,30.77
2024-02-23T11:15:50.155Z,29.76
2024-02-23T11:16:53.184Z,29.25
2024-02-23T11:17:57.359Z,30.58
2024-02-23T11:19:12.616Z,29.16
2024-02-23T11:20:29.516Z,29.58
2024-02-23T11:21:40.243Z,28.58
2024-02-23T11:22:42.991Z,28.94
2024-02-23T11:23:52.416Z,28.78
2024-02-23T11:24:56.108Z,30.13
2024-02-23T11:26:04.849Z,29.12
2024-02-23T11:27:14.036Z,30.03
2024-02-23T11:28:25.972Z,28.78
2024-02-23T11:29:30.703Z,30.22
2024-02-23T11:30:34.128Z,29.47
2024-02-23T11:31:38.941Z,29.15
2024-02-23T11:32:44.886Z,28.16
2024-02-23T11:33:53.499Z,29.75
2024-02-23T11:34:58.115Z,28.46
2024-02-23T11:36:10.332Z,28.97
2024-02-23T11:37:14.357Z,29.13
2024-02-23T11:38:19.178Z,27.58
2024-02-23T11:39:22.899Z,28.63
2024-02-23T11:40:27.191Z,29.06
2024-02-23T11:41:30.781Z,27.86
2024-02-23T11:42:36.847Z,28.10
2024-02-23T11:43:40.922Z,28.07
2024-02-23T11:44:43.463Z,27.41
2024-02-23T11:45:48.608Z,27.66
2024-02-23T11:46:51.380Z,27.86
2024-02-23T11:47:54.082Z,27.10
2024-02-23T11:48:57.025Z,28.08
2024-02-23T11:49:59.910Z,27.49
2024-02-23T11:51:02.645Z,27.95
2024-02-23T11:52:05.660Z,28.03
2024-02-23T11:53:08.305Z,26.67
2024-02-23T11:54:11.070Z,27.34
2024-02-23T11:55:15.987Z,26.68
2024-02-23T11:56:21.130Z,27.66
2024-02-23T11:57:24.220Z,27.75
2024-02-23T11:58:27.275Z,25.73
2024-02-23T11:59:29.982Z,26.33
2024-02-23T12:00:33.271Z,26.10
2024-02-23T12:01:35.875Z,26.66
2024-02-23T12:02:38.493Z,26.05
2024-02-23T12:03:45.067Z,28.16
2024-02-23T12:04:47.741Z,28.01
2024-02-23T12:05:52.249Z,27.27
2024-02-23T12:06:54.977Z,27.45
2024-02-23T12:07:59.689Z,27.56
2024-02-23T12:09:03.047Z,27.05
2024-02-23T12:10:07.279Z,27.17
2024-02-23T12:11:11.092Z,27.98
2024-02-23T12:12:14.502Z,27.37
2024-02-23T12:13:17.197Z,26.71
2024-02-23T12:14:20.020Z,26.45
2024-02-23T12:15:22.783Z,26.74
2024-02-23T12:16:26.791Z,27.04
2024-02-23T12:17:30.479Z,27.16
2024-02-23T12:18:37.936Z,25.93
2024-02-23T12:19:43.918Z,27.10
2024-02-23T12:20:49.297Z,26.33
2024-02-23T12:21:51.974Z,27.14
2024-02-23T12:22:57.692Z,27.88
2024-02-23T12:24:00.496Z,28.05
2024-02-23T12:25:04.365Z,27.38
2024-02-23T12:26:08.406Z,27.15
2024-02-23T12:27:11.081Z,28.11
2024-02-23T12:28:19.541Z,26.77
2024-02-23T12:29:22.492Z,26.65
2024-02-23T12:30:25.264Z,28.00
2024-02-23T12:31:27.979Z,26.69
2024-02-23T12:32:30.691Z,27.00
2024-02-23T12:33:38.892Z,28.08
2024-02-23T12:34:45.213Z,27.59
2024-02-23T12:35:47.877Z,27.80
2024-02-23T12:36:51.161Z,27.71
2024-02-23T12:37:53.866Z,28.03
2024-02-23T12:38:56.792Z,27.80
2024-02-23T12:39:59.317Z,28.80
2024-02-23T12:41:04.076Z,29.01
2024-02-23T12:42:06.915Z,28.40
2024-02-23T12:43:09.480Z,28.32
2024-02-23T12:44:12.156Z,28.76
2024-02-23T12:45:16.099Z,29.10
2024-02-23T12:46:18.787Z,27.55
2024-02-23T12:47:21.504Z,27.58
2024-02-23T12:48:24.330Z,27.04
2024-02-23T12:49:27.004Z,28.39
2024-02-23T12:50:32.319Z,27.95
2024-02-23T12:51:35.057Z,27.71
2024-02-23T12:52:37.860Z,28.03
2024-02-23T12:53:42.917Z,28.50
2024-02-23T12:54:45.684Z,28.39
2024-02-23T12:55:49.907Z,28.08
2024-02-23T12:56:52.518Z,27.58
2024-02-23T12:57:55.185Z,28.30
2024-02-23T12:58:58.604Z,28.10
2024-02-23T13:00:01.285Z,28.55
2024-02-23T13:01:04.537Z,26.61
2024-02-23T13:02:10.458Z,26.30
2024-02-23T13:03:13.205Z,26.40
2024-02-23T13:04:15.967Z,26.73
2024-02-23T13:05:19.762Z,27.35
2024-02-23T13:06:22.768Z,27.27
2024-02-23T13:07:27.159Z,27.42
2024-02-23T13:08:31.334Z,28.60
2024-02-23T13:09:33.892Z,28.66
2024-02-23T13:10:36.410Z,27.78
2024-02-23T13:11:40.171Z,28.00
2024-02-23T13:12:42.939Z,27.07
2024-02-23T13:13:45.537Z,26.76
2024-02-23T13:14:48.208Z,27.14
2024-02-23T13:15:53.557Z,27.95
2024-02-23T13:16:56.168Z,27.23
2024-02-23T13:17:58.909Z,26.94
2024-02-23T13:19:03.028Z,26.27
2024-02-23T13:20:11.618Z,26.47
2024-02-23T13:21:16.160Z,27.04
2024-02-23T13:22:20.609Z,26.70
2024-02-23T13:23:23.438Z,26.92
2024-02-23T13:24:25.965Z,27.77
2024-02-23T13:25:29.726Z,27.45
2024-02-23T13:26:32.481Z,27.49
2024-02-23T13:27:35.202Z,26.94
2024-02-23T13:28:38.564Z,27.09
2024-02-23T13:29:41.184Z,27.46
2024-02-23T13:30:43.951Z,27.38
2024-02-23T13:31:46.480Z,28.51
2024-02-23T13:32:49.320Z,28.85
2024-02-23T13:33:52.372Z,27.61
2024-02-23T13:34:55.393Z,27.74
2024-02-23T13:35:59.295Z,28.07
2024-02-23T13:37:01.837Z,27.91
2024-02-23T13:38:04.816Z,27.67
2024-02-23T13:39:07.465Z,27.81
2024-02-23T13:40:10.882Z,28.29
2024-02-23T13:41:13.583Z,27.62
2024-02-23T13:42:16.213Z,28.61
2024-02-23T13:43:18.784Z,27.75